createdAt,value
2023-06-14T00:00:13.418Z,99285.40
2023-06-14T00:03:36.615Z,99283.94
2023-06-14T00:06:40.003Z,99284.95
2023-06-14T00:09:42.785Z,99283.77
2023-06-14T00:12:45.789Z,99282.21
2023-06-14T00:15:48.901Z,99277.39
2023-06-14T00:18:54.522Z,99279.21
2023-06-14T00:21:57.937Z,99275.56
2023-06-14T00:25:08.257Z,99269.81
2023-06-14T00:28:14.761Z,99267.00
2023-06-14T00:31:17.754Z,99265.63
2023-06-14T00:34:20.604Z,99265.71
2023-06-14T00:37:23.615Z,99261.09
2023-06-14T00:40:26.452Z,99255.03
2023-06-14T00:43:29.506Z,99249.05
2023-06-14T00:46:32.367Z,99250.13
2023-06-14T00:49:35.545Z,99249.79
2023-06-14T00:52:38.707Z,99248.10
2023-06-14T00:55:41.534Z,99251.64
2023-06-14T00:58:44.653Z,99244.38
2023-06-14T01:01:47.675Z,99246.39
2023-06-14T01:04:52.723Z,99247.66
2023-06-14T01:08:11.538Z,99237.69
2023-06-14T01:11:23.070Z,99241.80
2023-06-14T01:14:28.768Z,99241.27
2023-06-14T01:17:33.167Z,99240.50
2023-06-14T01:20:39.154Z,99239.27
2023-06-14T01:23:42.312Z,99238.57
2023-06-14T01:26:47.061Z,99241.73
2023-06-14T01:29:53.094Z,99246.57
2023-06-14T01:32:57.636Z,99245.84
2023-06-14T01:36:02.043Z,99239.81
2023-06-14T01:39:07.464Z,99240.49
2023-06-14T01:42:12.146Z,99239.67
2023-06-14T01:45:16.225Z,99240.80
2023-06-14T01:48:20.181Z,99237.04
2023-06-14T01:51:24.553Z,99235.79
2023-06-14T01:54:28.522Z,99235.42
2023-06-14T01:57:31.812Z,99243.04
2023-06-14T02:00:36.037Z,99245.65
2023-06-14T02:03:40.271Z,99247.54
2023-06-14T02:06:43.055Z,99244.59
2023-06-14T02:09:45.951Z,99243.15
2023-06-14T02:12:49.383Z,99237.98
2023-06-14T02:15:54.296Z,99232.91
2023-06-14T02:18:58.978Z,99233.83
2023-06-14T02:22:01.857Z,99241.72
2023-06-14T02:25:05.144Z,99250.92
2023-06-14T02:28:09.719Z,99255.77
2023-06-14T02:31:12.582Z,99247.93
2023-06-14T02:34:17.905Z,99248.86
2023-06-14T02:37:20.869Z,99250.06
2023-06-14T02:40:24.515Z,99248.24
2023-06-14T02:43:27.361Z,99247.41
2023-06-14T02:46:30.196Z,99248.07
2023-06-14T02:49:33.032Z,99245.67
2023-06-14T02:52:35.969Z,99242.33
2023-06-14T02:55:41.400Z,99243.82
2023-06-14T02:58:44.981Z,99243.00
2023-06-14T03:01:47.812Z,99241.15
2023-06-14T03:04:51.764Z,99232.02
2023-06-14T03:07:55.575Z,99231.13
2023-06-14T03:10:58.625Z,99230.41
2023-06-14T03:14:02.177Z,99235.86
2023-06-14T03:17:06.296Z,99237.81
2023-06-14T03:20:11.439Z,99246.19
2023-06-14T03:23:14.302Z,99243.94
2023-06-14T03:26:20.526Z,99245.45
2023-06-14T03:29:25.118Z,99247.23
2023-06-14T03:32:28.503Z,99244.61
2023-06-14T03:35:31.733Z,99241.95
2023-06-14T03:38:35.630Z,99246.92
2023-06-14T03:41:39.372Z,99246.86
2023-06-14T03:44:42.303Z,99244.54
2023-06-14T03:47:45.843Z,99241.65
2023-06-14T03:50:48.846Z,99240.16
2023-06-14T03:54:14.973Z,99241.10
2023-06-14T03:57:15.035Z,99244.66
2023-06-14T04:00:19.453Z,99245.27
2023-06-14T04:03:30.977Z,99251.53
2023-06-14T04:06:34.913Z,99251.30
2023-06-14T04:09:37.761Z,99265.38
2023-06-14T04:12:43.649Z,99264.95
2023-06-14T04:15:47.307Z,99267.24
2023-06-14T04:18:59.383Z,99269.51
2023-06-14T04:22:03.508Z,99266.98
2023-06-14T04:25:09.629Z,99263.48
2023-06-14T04:28:16.820Z,99261.88
2023-06-14T04:31:20.252Z,99261.52
2023-06-14T04:34:24.960Z,99260.27
2023-06-14T04:37:31.525Z,99257.30
2023-06-14T04:40:34.993Z,99256.25
2023-06-14T04:43:39.321Z,99258.48
2023-06-14T04:46:49.372Z,99251.61
2023-06-14T04:49:58.983Z,99252.75
2023-06-14T04:53:01.858Z,99255.29
2023-06-14T04:56:05.652Z,99256.27
2023-06-14T04:59:10.328Z,99257.08
2023-06-14T05:02:13.433Z,99256.63
2023-06-14T05:05:17.383Z,99256.09
2023-06-14T05:08:24.605Z,99252.50
2023-06-14T05:11:28.340Z,99254.52
2023-06-14T05:14:31.358Z,99254.73
2023-06-14T05:17:37.369Z,99257.96
2023-06-14T05:20:40.306Z,99255.60
2023-06-14T05:23:43.120Z,99251.31
2023-06-14T05:26:46.301Z,99252.42
2023-06-14T05:29:49.210Z,99252.80
2023-06-14T05:32:52.051Z,99253.20
2023-06-14T05:35:56.712Z,99253.45
2023-06-14T05:39:01.198Z,99257.17
2023-06-14T05:42:05.356Z,99253.20
2023-06-14T05:45:08.759Z,99257.05
2023-06-14T05:48:11.968Z,99257.38
2023-06-14T05:51:15.875Z,99258.81
2023-06-14T05:54:18.736Z,99254.35
2023-06-14T05:57:21.572Z,99259.36
2023-06-14T06:00:24.474Z,99263.36
2023-06-14T06:03:30.421Z,99269.30
2023-06-14T06:06:33.756Z,99272.83
2023-06-14T06:09:36.992Z,99274.54
2023-06-14T06:12:39.785Z,99272.17
2023-06-14T06:15:42.584Z,99272.38
2023-06-14T06:18:45.828Z,99272.46
2023-06-14T06:21:48.915Z,99266.14
2023-06-14T06:24:51.963Z,99270.92
2023-06-14T06:27:57.794Z,99271.48
2023-06-14T06:31:03.914Z,99269.37
2023-06-14T06:34:07.833Z,99271.52
2023-06-14T06:37:10.887Z,99274.20
2023-06-14T06:40:14.124Z,99270.45
2023-06-14T06:43:19.101Z,99269.92
2023-06-14T06:46:24.028Z,99272.35
2023-06-14T06:49:26.998Z,99270.16
2023-06-14T06:52:30.419Z,99272.31
2023-06-14T06:55:33.625Z,99272.91
2023-06-14T06:58:36.513Z,99276.88
2023-06-14T07:01:40.128Z,99282.72
2023-06-14T07:04:43.138Z,99280.00
2023-06-14T07:07:45.996Z,99279.08
2023-06-14T07:10:49.182Z,99277.44
2023-06-14T07:13:51.935Z,99273.17
2023-06-14T07:16:54.797Z,99274.66
2023-06-14T07:19:58.367Z,99271.46
2023-06-14T07:23:01.545Z,99277.55
2023-06-14T07:26:04.397Z,99287.71
2023-06-14T07:29:07.735Z,99288.64
2023-06-14T07:32:10.561Z,99284.98
2023-06-14T07:35:13.717Z,99282.17
2023-06-14T07:38:17.003Z,99285.91
2023-06-14T07:41:19.880Z,99289.58
2023-06-14T07:44:22.697Z,99287.45
2023-06-14T07:47:26.583Z,99294.48
2023-06-14T07:50:30.200Z,99296.83
2023-06-14T07:53:33.177Z,99304.29
2023-06-14T07:56:36.849Z,99307.02
2023-06-14T07:59:39.696Z,99307.70
2023-06-14T08:02:43.806Z,99311.13
2023-06-14T08:05:47.008Z,99314.20
2023-06-14T08:08:49.840Z,99314.13
2023-06-14T08:11:52.660Z,99308.97
2023-06-14T08:15:09.169Z,99307.52
2023-06-14T08:18:17.126Z,99304.77
2023-06-14T08:21:20.541Z,99305.84
2023-06-14T08:24:26.361Z,99305.48
2023-06-14T08:27:30.953Z,99307.80
2023-06-14T08:30:33.969Z,99313.19
2023-06-14T08:33:37.087Z,99316.40
2023-06-14T08:36:40.106Z,99313.91
2023-06-14T08:39:43.324Z,99312.61
2023-06-14T08:42:48.358Z,99312.52
2023-06-14T08:45:57.489Z,99315.70
2023-06-14T08:49:01.698Z,99311.91
2023-06-14T08:52:09.350Z,99314.58
2023-06-14T08:55:12.913Z,99319.08
2023-06-14T08:58:16.218Z,99321.39
2023-06-14T09:01:20.496Z,99317.78
2023-06-14T09:04:23.489Z,99323.86
2023-06-14T09:07:27.717Z,99319.70
2023-06-14T09:10:34.685Z,99319.99
2023-06-14T09:13:37.572Z,99311.59
2023-06-14T09:16:40.433Z,99313.29
2023-06-14T09:19:43.375Z,99313.23
2023-06-14T09:22:47.135Z,99310.27
2023-06-14T09:25:50.038Z,99310.39
2023-06-14T09:28:53.014Z,99307.22
2023-06-14T09:31:56.344Z,99305.54
2023-06-14T09:34:59.215Z,99303.13
2023-06-14T09:38:02.313Z,99300.32
2023-06-14T09:41:05.518Z,99301.21
2023-06-14T09:44:12.065Z,99293.84
2023-06-14T09:47:19.675Z,99297.92
2023-06-14T09:50:22.533Z,99299.29
2023-06-14T09:53:27.041Z,99296.95
2023-06-14T09:56:32.028Z,99294.27
2023-06-14T09:59:36.229Z,99295.66
2023-06-14T10:02:40.628Z,99293.84
2023-06-14T10:05:46.683Z,99301.51
2023-06-14T10:08:50.353Z,99300.69
2023-06-14T10:11:53.645Z,99299.23
2023-06-14T10:14:58.771Z,99300.48
2023-06-14T10:18:16.278Z,99302.78
2023-06-14T10:21:37.188Z,99297.93
2023-06-14T10:24:44.612Z,99300.59
2023-06-14T10:27:48.335Z,99303.26
2023-06-14T10:31:12.087Z,99302.50
2023-06-14T10:34:32.282Z,99299.74
2023-06-14T10:37:35.287Z,99296.67
2023-06-14T10:40:40.175Z,99296.20
2023-06-14T10:43:42.968Z,99290.94
2023-06-14T10:46:55.282Z,99288.52
2023-06-14T10:50:09.984Z,99279.99
2023-06-14T10:53:25.322Z,99276.27
2023-06-14T10:56:32.386Z,99274.88
2023-06-14T10:59:35.195Z,99278.34
2023-06-14T11:02:52.700Z,99274.39
2023-06-14T11:05:57.761Z,99269.92
2023-06-14T11:09:28.872Z,99265.51
2023-06-14T11:12:34.506Z,99260.08
2023-06-14T11:15:39.126Z,99257.54
2023-06-14T11:18:43.570Z,99256.88
2023-06-14T11:21:49.314Z,99258.70
2023-06-14T11:24:52.126Z,99256.65
2023-06-14T11:27:55.932Z,99249.45
2023-06-14T11:31:04.556Z,99251.64
2023-06-14T11:34:07.608Z,99254.36
2023-06-14T11:37:10.681Z,99254.15
2023-06-14T11:40:13.740Z,99249.73
2023-06-14T11:44:00.892Z,99246.02
2023-06-14T11:47:05.115Z,99238.77
2023-06-14T11:50:10.267Z,99241.00
2023-06-14T11:53:13.515Z,99240.20
2023-06-14T11:56:17.792Z,99242.74
2023-06-14T11:59:22.114Z,99230.17
2023-06-14T12:02:26.678Z,99225.52
2023-06-14T12:05:29.924Z,99227.39
2023-06-14T12:08:40.807Z,99225.86
2023-06-14T12:11:44.080Z,99228.10
2023-06-14T12:14:48.493Z,99228.45
2023-06-14T12:17:52.013Z,99235.85
2023-06-14T12:20:54.889Z,99236.73
2023-06-14T12:23:57.772Z,99232.66
2023-06-14T12:27:06.613Z,99239.71
2023-06-14T12:30:10.404Z,99245.20
2023-06-14T12:33:13.948Z,99245.02
2023-06-14T12:36:17.961Z,99241.32
2023-06-14T12:39:21.872Z,99232.81
2023-06-14T12:42:24.694Z,99230.70
2023-06-14T12:45:27.511Z,99226.73
2023-06-14T12:48:32.272Z,99229.88
2023-06-14T12:51:36.029Z,99230.52
2023-06-14T12:54:41.562Z,99232.30
2023-06-14T12:57:44.552Z,99227.05
2023-06-14T13:00:48.659Z,99228.24
2023-06-14T13:03:52.926Z,99224.74
2023-06-14T13:06:55.836Z,99229.27
2023-06-14T13:09:58.852Z,99233.33
2023-06-14T13:13:01.813Z,99241.08
2023-06-14T13:16:05.156Z,99238.36
2023-06-14T13:19:07.993Z,99240.05
2023-06-14T13:22:11.046Z,99241.06
2023-06-14T13:25:14.251Z,99244.93
2023-06-14T13:28:17.206Z,99244.91
2023-06-14T13:31:20.107Z,99241.40
2023-06-14T13:34:23.391Z,99240.70
2023-06-14T13:37:26.522Z,99236.09
2023-06-14T13:40:29.418Z,99230.70
2023-06-14T13:43:32.234Z,99224.39
2023-06-14T13:46:35.209Z,99222.33
2023-06-14T13:49:38.117Z,99221.27
2023-06-14T13:52:41.305Z,99219.86
2023-06-14T13:55:44.585Z,99226.27
2023-06-14T13:58:47.385Z,99229.12
2023-06-14T14:01:51.032Z,99229.29
2023-06-14T14:04:54.960Z,99232.05
2023-06-14T14:07:58.272Z,99227.89
2023-06-14T14:11:01.916Z,99223.41
2023-06-14T14:14:06.304Z,99227.66
2023-06-14T14:17:09.373Z,99232.17
2023-06-14T14:20:17.215Z,99234.88
2023-06-14T14:23:21.875Z,99229.81
2023-06-14T14:26:25.836Z,99230.57
2023-06-14T14:29:31.744Z,99236.04
2023-06-14T14:32:34.584Z,99233.09
2023-06-14T14:35:37.504Z,99226.91
2023-06-14T14:38:40.940Z,99221.88
2023-06-14T14:41:43.764Z,99219.80
2023-06-14T14:44:46.659Z,99217.39
2023-06-14T14:47:49.479Z,99218.83
2023-06-14T14:50:52.315Z,99225.92
2023-06-14T14:53:56.213Z,99221.16
2023-06-14T14:56:59.138Z,99218.67
2023-06-14T15:00:02.164Z,99220.77
2023-06-14T15:03:05.249Z,99218.67
2023-06-14T15:06:08.204Z,99216.32
2023-06-14T15:09:11.379Z,99219.62
2023-06-14T15:12:14.204Z,99219.30
2023-06-14T15:15:17.080Z,99212.80
2023-06-14T15:18:21.720Z,99214.06
2023-06-14T15:21:24.773Z,99213.20
2023-06-14T15:24:41.427Z,99212.75
2023-06-14T15:27:46.261Z,99211.80
2023-06-14T15:30:49.065Z,99209.04
2023-06-14T15:33:51.936Z,99210.21
2023-06-14T15:36:54.919Z,99211.35
2023-06-14T15:39:57.809Z,99220.54
2023-06-14T15:43:00.706Z,99216.87
2023-06-14T15:46:03.817Z,99219.70
2023-06-14T15:49:14.479Z,99222.02
2023-06-14T15:52:17.449Z,99222.02
2023-06-14T15:55:20.805Z,99213.91
2023-06-14T15:58:23.727Z,99212.02
2023-06-14T16:01:28.366Z,99217.16
2023-06-14T16:04:31.230Z,99215.45
2023-06-14T16:07:34.256Z,99210.23
2023-06-14T16:10:37.536Z,99211.63
2023-06-14T16:13:43.128Z,99211.13
2023-06-14T16:16:47.775Z,99209.34
2023-06-14T16:19:51.057Z,99212.02
2023-06-14T16:22:54.180Z,99209.09
2023-06-14T16:25:56.972Z,99207.73
2023-06-14T16:28:59.751Z,99216.33
2023-06-14T16:32:03.317Z,99220.98
2023-06-14T16:35:07.230Z,99220.58
2023-06-14T16:38:11.647Z,99224.27
2023-06-14T16:41:16.116Z,99224.96
2023-06-14T16:44:19.599Z,99228.92
2023-06-14T16:47:22.402Z,99230.14
2023-06-14T16:50:25.271Z,99223.64
2023-06-14T16:53:29.084Z,99221.96
2023-06-14T16:56:32.468Z,99221.12
2023-06-14T16:59:35.370Z,99219.80
2023-06-14T17:02:38.644Z,99220.05
2023-06-14T17:05:55.688Z,99221.13
2023-06-14T17:08:58.555Z,99219.77
2023-06-14T17:12:02.429Z,99220.91
2023-06-14T17:15:06.175Z,99218.13
2023-06-14T17:18:09.202Z,99218.73
2023-06-14T17:21:14.276Z,99217.66
2023-06-14T17:24:25.913Z,99216.84
2023-06-14T17:27:29.753Z,99214.45
2023-06-14T17:30:32.572Z,99219.19
2023-06-14T17:33:37.391Z,99217.30
2023-06-14T17:36:40.379Z,99214.23
2023-06-14T17:39:43.355Z,99210.17
2023-06-14T17:42:46.146Z,99215.17
2023-06-14T17:45:49.094Z,99216.83
2023-06-14T17:48:52.145Z,99223.88
2023-06-14T17:51:55.338Z,99227.92
2023-06-14T17:54:58.363Z,99227.70
2023-06-14T17:58:03.204Z,99229.30
2023-06-14T18:01:06.334Z,99229.23
2023-06-14T18:04:09.676Z,99229.08
2023-06-14T18:07:12.789Z,99225.72
2023-06-14T18:10:18.348Z,99218.60
2023-06-14T18:13:21.388Z,99222.88
2023-06-14T18:16:24.513Z,99223.21
2023-06-14T18:19:29.752Z,99224.23
2023-06-14T18:22:32.838Z,99230.00
2023-06-14T18:25:35.649Z,99230.39
2023-06-14T18:28:38.480Z,99234.43
2023-06-14T18:31:41.639Z,99234.77
2023-06-14T18:34:44.524Z,99240.45
2023-06-14T18:37:47.316Z,99240.28
2023-06-14T18:40:52.707Z,99240.55
2023-06-14T18:43:55.956Z,99247.16
2023-06-14T18:46:58.796Z,99247.81
2023-06-14T18:50:01.692Z,99248.48
2023-06-14T18:53:04.722Z,99248.54
2023-06-14T18:56:07.699Z,99251.83
2023-06-14T18:59:10.558Z,99258.45
2023-06-14T19:02:13.644Z,99259.94
2023-06-14T19:05:19.036Z,99264.63
2023-06-14T19:08:23.329Z,99268.69
2023-06-14T19:11:26.173Z,99273.33
2023-06-14T19:14:29.107Z,99277.44
2023-06-14T19:17:32.033Z,99278.14
2023-06-14T19:20:35.196Z,99277.32
2023-06-14T19:23:38.424Z,99273.23
2023-06-14T19:26:41.455Z,99275.32
2023-06-14T19:29:44.324Z,99272.59
2023-06-14T19:32:52.772Z,99268.64
2023-06-14T19:35:57.574Z,99267.92
2023-06-14T19:39:00.570Z,99268.03
2023-06-14T19:42:04.014Z,99267.85
2023-06-14T19:45:11.393Z,99267.45
2023-06-14T19:48:21.063Z,99270.02
2023-06-14T19:51:25.123Z,99268.92
2023-06-14T19:54:28.725Z,99270.82
2023-06-14T19:57:31.513Z,99272.87
2023-06-14T20:00:34.645Z,99277.01
2023-06-14T20:03:37.580Z,99274.21
2023-06-14T20:06:40.734Z,99277.77
2023-06-14T20:09:43.528Z,99275.00
2023-06-14T20:12:47.155Z,99276.34
2023-06-14T20:15:50.095Z,99277.30
2023-06-14T20:18:53.009Z,99276.31
2023-06-14T20:21:55.897Z,99270.54
2023-06-14T20:24:58.717Z,99271.85
2023-06-14T20:28:01.857Z,99269.42
2023-06-14T20:31:04.857Z,99268.90
2023-06-14T20:34:07.719Z,99267.14
2023-06-14T20:37:10.723Z,99270.74
2023-06-14T20:40:21.410Z,99270.23
2023-06-14T20:43:27.864Z,99272.23
2023-06-14T20:46:31.857Z,99273.52
2023-06-14T20:49:34.701Z,99271.33
2023-06-14T20:52:37.535Z,99270.04
2023-06-14T20:55:40.367Z,99273.60
2023-06-14T20:58:44.039Z,99269.23
2023-06-14T21:01:48.038Z,99268.91
2023-06-14T21:04:51.463Z,99270.79
2023-06-14T21:07:54.327Z,99268.86
2023-06-14T21:10:59.102Z,99269.77
2023-06-14T21:14:02.097Z,99268.92
2023-06-14T21:17:06.830Z,99264.65
2023-06-14T21:20:10.162Z,99264.61
2023-06-14T21:23:14.436Z,99262.27
2023-06-14T21:26:17.640Z,99264.13
2023-06-14T21:29:20.540Z,99271.58
2023-06-14T21:32:23.375Z,99272.27
2023-06-14T21:35:26.397Z,99267.50
2023-06-14T21:38:29.276Z,99270.55
2023-06-14T21:41:32.712Z,99270.42
2023-06-14T21:44:43.614Z,99269.06
2023-06-14T21:47:47.287Z,99269.41
2023-06-14T21:50:50.207Z,99270.55
2023-06-14T21:53:53.044Z,99271.49
2023-06-14T21:56:56.011Z,99266.61
2023-06-14T21:59:58.783Z,99267.54
2023-06-14T22:03:02.596Z,99267.88
2023-06-14T22:06:05.998Z,99263.64
2023-06-14T22:09:08.923Z,99264.75
2023-06-14T22:12:16.025Z,99260.85
2023-06-14T22:15:19.927Z,99255.96
2023-06-14T22:18:23.061Z,99256.16
2023-06-14T22:21:26.974Z,99253.39
2023-06-14T22:24:29.981Z,99246.23
2023-06-14T22:27:33.367Z,99247.32
2023-06-14T22:30:37.446Z,99248.34
2023-06-14T22:33:42.986Z,99246.07
2023-06-14T22:36:49.022Z,99247.29
2023-06-14T22:39:52.083Z,99247.27
2023-06-14T22:42:58.340Z,99247.14
2023-06-14T22:46:01.778Z,99244.07
2023-06-14T22:49:04.722Z,99241.45
2023-06-14T22:52:08.055Z,99241.14
2023-06-14T22:55:12.063Z,99243.36
2023-06-14T22:58:16.363Z,99243.39
2023-06-14T23:01:19.421Z,99242.22
2023-06-14T23:04:23.843Z,99242.71
2023-06-14T23:07:28.398Z,99239.50
2023-06-14T23:10:31.342Z,99236.64
2023-06-14T23:13:34.106Z,99239.98
2023-06-14T23:16:36.995Z,99237.88
2023-06-14T23:19:40.904Z,99239.02
2023-06-14T23:22:44.730Z,99232.52
2023-06-14T23:25:49.567Z,99229.30
2023-06-14T23:28:55.452Z,99224.05
2023-06-14T23:32:00.768Z,99223.59
2023-06-14T23:35:05.890Z,99223.17
2023-06-14T23:38:13.481Z,99225.29
2023-06-14T23:41:17.105Z,99223.02
2023-06-14T23:44:24.670Z,99222.95
2023-06-14T23:47:30.972Z,99220.52
2023-06-14T23:50:33.851Z,99220.38
2023-06-14T23:53:38.357Z,99215.02
2023-06-14T23:56:42.580Z,99210.23
2023-06-14T23:59:46.016Z,99210.48
